PAYA

Yakutat Airport

Yakutat, Alaska, USA
PAYA 231120Z 2312/2412 28004KT 1SM BR VV003 FM231600 28005KT 2SM BR OVC005 FM231700 28005KT P6SM OVC005 FM231900 26005KT P6SM BKN010 FM232000 26008KT P6SM SCT010 FM240200 27005KT P6SM BKN010 FM240400 27005KT 4SM BR BKN007 FM240800 27004KT 1SM BR OVC002 AMD LTD TO CLD VIS AND WIND
Issued Valid From Valid To
Jul-23 @ 11:20 UTC
(2 hours ago)
Jul-23 @ 12:00 UTC
(2 hours ago)
Jul-24 @ 12:00 UTC
(in 22 hours)
Jul-23 @ 12:00 to Jul-23 @ 16:00
PAYA 231120Z 2312/2412 28004KT 1SM BR VV003
Wind Visibility Clouds Conditions
280° at 4 knots 1 miles
  • Vertical visibility at 300' AGL
  • Mist
From Jul-23 @ 16:00 to Jul-23 @ 17:00
FM231600 28005KT 2SM BR OVC005
Wind Visibility Clouds Conditions
280° at 5 knots 2 miles
  • Overcast at 500' AGL
  • Mist
From Jul-23 @ 17:00 to Jul-23 @ 19:00
FM231700 28005KT P6SM OVC005
Wind Visibility Clouds
280° at 5 knots Greater than 6 miles
  • Overcast at 500' AGL
From Jul-23 @ 19:00 to Jul-23 @ 20:00
FM231900 26005KT P6SM BKN010
Wind Visibility Clouds
260° at 5 knots Greater than 6 miles
  • Broken at 1,000' AGL
From Jul-23 @ 20:00 to Jul-24 @ 02:00
FM232000 26008KT P6SM SCT010
Wind Visibility Clouds
260° at 8 knots Greater than 6 miles
  • Scattered at 1,000' AGL
From Jul-24 @ 02:00 to Jul-24 @ 04:00
FM240200 27005KT P6SM BKN010
Wind Visibility Clouds
270° at 5 knots Greater than 6 miles
  • Broken at 1,000' AGL
From Jul-24 @ 04:00 to Jul-24 @ 08:00
FM240400 27005KT 4SM BR BKN007
Wind Visibility Clouds Conditions
270° at 5 knots 4 miles
  • Broken at 700' AGL
  • Mist
From Jul-24 @ 08:00 to Jul-24 @ 12:00
FM240800 27004KT 1SM BR OVC002 AMD LTD TO CLD VIS AND WIND
Wind Visibility Clouds Conditions
270° at 4 knots 1 miles
  • Overcast at 200' AGL
  • Mist
PAYA 231120Z 2312/2412 28004KT 1SM BR VV003 FM231600 28005KT 2SM BR OVC005 FM231700 28005KT P6SM OVC005 FM231900 26005KT P6SM BKN010 FM232000 26008KT P6SM SCT010 FM240200 27005KT P6SM BKN010 FM240400 27005KT 4SM BR BKN007 FM240800 27004KT 1SM BR OVC002 AMD LTD TO CLD VIS AND WIND
Issued Jul-23 @ 11:20 UTC
(2 hours ago)
Valid From Jul-23 @ 12:00 UTC
(2 hours ago)
Valid To Jul-24 @ 12:00 UTC
(in 22 hours)
Jul-23 @ 12:00 - Jul-23 @ 16:00
Wind Visibility
280° at 4 knots 1 miles
Clouds
  • Vertical visibility at 300' AGL
Conditions
  • Mist
From Jul-23 @ 16:00 - Jul-23 @ 17:00
Wind Visibility
280° at 5 knots 2 miles
Clouds
  • Overcast at 500' AGL
Conditions
  • Mist
From Jul-23 @ 17:00 - Jul-23 @ 19:00
Wind Visibility
280° at 5 knots Greater than 6 miles
Clouds
  • Overcast at 500' AGL
From Jul-23 @ 19:00 - Jul-23 @ 20:00
Wind Visibility
260° at 5 knots Greater than 6 miles
Clouds
  • Broken at 1,000' AGL
From Jul-23 @ 20:00 - Jul-24 @ 02:00
Wind Visibility
260° at 8 knots Greater than 6 miles
Clouds
  • Scattered at 1,000' AGL
From Jul-24 @ 02:00 - Jul-24 @ 04:00
Wind Visibility
270° at 5 knots Greater than 6 miles
Clouds
  • Broken at 1,000' AGL
From Jul-24 @ 04:00 - Jul-24 @ 08:00
Wind Visibility
270° at 5 knots 4 miles
Clouds
  • Broken at 700' AGL
Conditions
  • Mist
From Jul-24 @ 08:00 - Jul-24 @ 12:00
Wind Visibility
270° at 4 knots 1 miles
Clouds
  • Overcast at 200' AGL
Conditions
  • Mist